Strona główna
METAR-TAF:

METAR-TAF

Lotnisko :

Lorain County Regional Airport

Lorain / Elyria, Ohio, Stany Zjednoczone

Szerokość geograficzna: 41-20-46N, Długość geograficzna: 082-10-46W, wysokość: 242 m

Aktualna obserwacja pogody

Raport powstał 48 minut temu, godzina 06:53 UTC
Wiatr 6 kt od wschód
Temperatura 21°C
Wilgotność 69%
Ciśnienie 1012 hPa
Widzialność: 16.1 km
Zachmurzenie całkowite na wysokości 2100 ft

METAR: KLPR 220653Z AUTO 08006KT 10SM OVC021 21/15 A2989 RMK AO2 SLP114 T02060150

czas: 03:41 (07:41 UTC)


TAF: brakujący

Obserwacja i prognoza pogody dla ponad 4000 lotnisk (raport METAR i TAF).

Dostępne stacje oznaczono żółtymi i czerwonymi punktami na mapie.

Najedź kursorem aby zobaczyć nazwę stacji.

Kliknij aby zobaczyć obserwacje i prognozy pogody.

Aby zmienić mapę: kliknij na zielony przycisk z czarnym krzyżykiem, aby powiększyć; na zielony przycisk z myślnikiem, aby pomniejszyć; na zielone strzałki, aby przejść do map sąsiednich.


METAR-TAF: